createdAt,value
2019-06-10T00:00:33.781Z,61.94
2019-06-10T00:01:16.536Z,61.74
2019-06-10T00:01:57.420Z,62.41
2019-06-10T00:02:37.488Z,62.41
2019-06-10T00:03:20.486Z,62.8
2019-06-10T00:03:59.826Z,62.9
2019-06-10T00:04:41.357Z,62.96
2019-06-10T00:05:21.449Z,63.45
2019-06-10T00:06:01.852Z,63.35
2019-06-10T00:06:41.491Z,62.87
2019-06-10T00:07:21.806Z,63.06
2019-06-10T00:08:03.831Z,63.15
2019-06-10T00:08:42.031Z,63.54
2019-06-10T00:09:22.484Z,63.73
2019-06-10T00:10:21.312Z,63.73
2019-06-10T00:11:01.711Z,63.92
2019-06-10T00:11:41.061Z,63.92
2019-06-10T00:12:20.942Z,63.92
2019-06-10T00:13:02.441Z,64.09
2019-06-10T00:13:41.582Z,63.73
2019-06-10T00:14:21.904Z,64.31
2019-06-10T00:15:03.359Z,64.22
2019-06-10T00:15:42.817Z,64.22
2019-06-10T00:16:23.291Z,64.28
2019-06-10T00:17:05.009Z,64.02
2019-06-10T00:18:38.176Z,64.02
2019-06-10T00:19:06.734Z,64.12
2019-06-10T00:21:45.190Z,63.83
2019-06-10T00:24:22.080Z,63.6
2019-06-10T00:25:12.058Z,64.18
2019-06-10T00:26:05.880Z,65.33
2019-06-10T00:28:06.026Z,65.23
2019-06-10T00:28:45.920Z,65.62
2019-06-10T00:29:27.063Z,65.33
2019-06-10T00:30:08.076Z,65.62
2019-06-10T00:30:48.174Z,65.43
2019-06-10T00:31:31.075Z,65.53
2019-06-10T00:32:12.181Z,65.72
2019-06-10T00:33:30.862Z,66
2019-06-10T00:35:22.941Z,65.72
2019-06-10T00:36:12.821Z,65.91
2019-06-10T00:37:02.587Z,66
2019-06-10T00:39:23.458Z,65.91
2019-06-10T00:40:13.996Z,65.91
2019-06-10T00:41:05.931Z,65.62
2019-06-10T00:41:57.055Z,65.33
2019-06-10T00:42:51.290Z,65.33
2019-06-10T00:43:42.985Z,65.43
2019-06-10T00:48:50.859Z,66.39
2019-06-10T00:49:31.661Z,66.3
2019-06-10T00:50:14.277Z,67.16
2019-06-10T00:50:51.754Z,67.25
2019-06-10T00:51:31.449Z,67.83
2019-06-10T00:52:13.807Z,67.16
2019-06-10T00:52:52.240Z,67.64
2019-06-10T00:53:32.630Z,67.74
2019-06-10T00:54:15.669Z,68.12
2019-06-10T00:54:55.550Z,67.93
2019-06-10T00:55:35.969Z,67.83
2019-06-10T00:56:16.482Z,67.64
2019-06-10T00:56:56.956Z,67.93
2019-06-10T00:57:39.039Z,68.12
2019-06-10T00:58:21.600Z,68.79
2019-06-10T00:59:00.954Z,68.21
2019-06-10T00:59:41.351Z,67.93
2019-06-10T01:01:02.609Z,67.64
2019-06-10T01:01:41.974Z,67.64
2019-06-10T01:02:22.383Z,67.25
2019-06-10T01:03:03.914Z,67.45
2019-06-10T01:03:43.348Z,67.54
2019-06-10T01:04:23.855Z,66.87
2019-06-10T01:05:05.050Z,66.87
2019-06-10T01:05:44.746Z,67.07
2019-06-10T01:06:25.215Z,66.77
2019-06-10T01:07:06.494Z,67.07
2019-06-10T01:08:26.631Z,66.3
2019-06-10T01:09:07.088Z,66.49
2019-06-10T01:09:47.565Z,66.49
2019-06-10T01:11:11.493Z,66.68
2019-06-10T01:11:49.009Z,66.1
2019-06-10T01:12:31.556Z,66.3
2019-06-10T01:13:12.194Z,66.39
2019-06-10T01:13:50.774Z,66.58
2019-06-10T01:14:31.970Z,66.49
2019-06-10T01:15:12.474Z,66.42
2019-06-10T01:15:51.764Z,66.49
2019-06-10T01:16:32.295Z,66.23
2019-06-10T01:17:15.220Z,66.3
2019-06-10T01:17:53.184Z,66.39
2019-06-10T01:18:38.231Z,66.42
2019-06-10T01:19:15.721Z,66.39
2019-06-10T01:19:54.608Z,66
2019-06-10T01:20:35.068Z,66.23
2019-06-10T01:21:15.668Z,66.04
2019-06-10T01:21:55.992Z,65.94
2019-06-10T01:22:36.461Z,66.33
2019-06-10T01:23:17.584Z,66.42
2019-06-10T01:23:57.424Z,66.14
2019-06-10T01:24:37.852Z,66.49
2019-06-10T01:26:01.328Z,65.84
2019-06-10T01:26:41.150Z,65.94
2019-06-10T01:27:21.167Z,65.37
2019-06-10T01:28:41.057Z,65.46
2019-06-10T01:29:21.272Z,65.84
2019-06-10T01:30:09.490Z,65.56
2019-06-10T01:30:42.139Z,65.66
2019-06-10T01:31:24.274Z,65.75
2019-06-10T01:32:03.079Z,66.49
2019-06-10T01:32:43.636Z,66.39
2019-06-10T01:33:24.098Z,66.97
2019-06-10T01:34:05.409Z,66.97
2019-06-10T01:34:45.049Z,66.97
2019-06-10T01:35:25.493Z,66.87
2019-06-10T01:36:05.960Z,66.68
2019-06-10T01:36:46.393Z,66.87
2019-06-10T01:37:26.827Z,66.97
2019-06-10T01:38:07.823Z,67.45
2019-06-10T01:38:47.816Z,67.54
2019-06-10T01:39:30.674Z,68.41
2019-06-10T01:40:12.628Z,68.7
2019-06-10T01:40:50.899Z,68.89
2019-06-10T01:41:30.579Z,68.51
2019-06-10T01:42:11.323Z,69.18
2019-06-10T01:43:31.959Z,70.2
2019-06-10T01:44:14.734Z,70.2
2019-06-10T01:44:53.242Z,70.1
2019-06-10T01:45:33.721Z,70.58
2019-06-10T01:46:14.734Z,70.68
2019-06-10T01:46:54.632Z,70.39
2019-06-10T01:47:35.124Z,70.39
2019-06-10T01:48:16.417Z,71.16
2019-06-10T01:48:56.048Z,70.97
2019-06-10T01:49:36.447Z,71.06
2019-06-10T01:50:57.451Z,71.25
2019-06-10T01:51:38.021Z,71.45
2019-06-10T01:52:18.518Z,71.06
2019-06-10T01:53:41.421Z,70.58
2019-06-10T01:54:21.265Z,71.06
2019-06-10T01:55:01.493Z,71.06
2019-06-10T01:55:41.707Z,70.68
2019-06-10T01:56:21.474Z,71.35
2019-06-10T01:57:01.728Z,70.93
2019-06-10T01:57:42.166Z,71.06
2019-06-10T01:58:23.548Z,70.97
2019-06-10T01:59:03.119Z,70.97
2019-06-10T01:59:43.580Z,71.61
2019-06-10T02:00:26.009Z,71.25
2019-06-10T02:01:04.464Z,71.55
2019-06-10T02:01:44.974Z,71.61
2019-06-10T02:02:25.435Z,71.89
2019-06-10T02:03:05.840Z,72.08
2019-06-10T02:03:46.322Z,71.8
2019-06-10T02:04:26.777Z,71.41
2019-06-10T02:05:08.464Z,71.61
2019-06-10T02:05:47.703Z,71.8
2019-06-10T02:06:28.210Z,72.18
2019-06-10T02:07:11.074Z,72.28
2019-06-10T02:08:31.545Z,72.08
2019-06-10T02:09:13.379Z,72.37
2019-06-10T02:09:54.042Z,71.7
2019-06-10T02:10:32.707Z,72.08
2019-06-10T02:11:15.377Z,72.37
2019-06-10T02:11:53.661Z,72.28
2019-06-10T02:12:34.115Z,72.66
2019-06-10T02:13:15.069Z,72.28
2019-06-10T02:13:55.025Z,72.56
2019-06-10T02:14:35.477Z,73.14
2019-06-10T02:15:17.060Z,73.62
2019-06-10T02:15:56.562Z,73.43
2019-06-10T02:16:37.031Z,74.01
2019-06-10T02:17:17.982Z,73.81
2019-06-10T02:18:40.608Z,74.48
2019-06-10T02:19:20.620Z,74.29
2019-06-10T02:20:01.096Z,74.19
2019-06-10T02:20:41.196Z,74.58
2019-06-10T02:21:24.242Z,74.54
2019-06-10T02:22:01.475Z,74.87
2019-06-10T02:22:41.714Z,74.48
2019-06-10T02:23:23.275Z,74.68
2019-06-10T02:24:02.638Z,74.64
2019-06-10T02:24:43.081Z,74.87
2019-06-10T02:25:23.520Z,74.19
2019-06-10T02:26:05.515Z,74.68
2019-06-10T02:26:46.001Z,74.77
2019-06-10T02:27:27.994Z,75.45
2019-06-10T02:28:08.499Z,74.96
2019-06-10T02:28:50.878Z,75.45
2019-06-10T02:29:30.743Z,75.15
2019-06-10T02:30:18.664Z,75.15
2019-06-10T02:30:55.101Z,74.58
2019-06-10T02:31:37.233Z,75.25
2019-06-10T02:32:14.163Z,75.63
2019-06-10T02:33:35.885Z,75.92
2019-06-10T02:34:17.453Z,75.35
2019-06-10T02:35:07.227Z,74.87
2019-06-10T02:35:43.184Z,75.73
2019-06-10T02:36:18.081Z,74.87
2019-06-10T02:36:54.749Z,74.77
2019-06-10T02:37:38.042Z,74.29
2019-06-10T02:38:19.757Z,74.19
2019-06-10T02:38:56.044Z,74.1
2019-06-10T02:39:38.851Z,73.81
2019-06-10T02:40:57.477Z,72.66
2019-06-10T02:41:37.962Z,73.85
2019-06-10T02:42:21.544Z,73.85
2019-06-10T02:43:39.379Z,73.75
2019-06-10T02:44:25.965Z,73.66
2019-06-10T02:46:43.798Z,73.91
2019-06-10T02:47:37.521Z,74.1
2019-06-10T02:48:30.222Z,73.81
2019-06-10T02:50:54.830Z,74.39
2019-06-10T02:53:03.869Z,75.06
2019-06-10T02:53:43.340Z,75.06
2019-06-10T02:54:28.242Z,74.96
2019-06-10T02:55:04.047Z,74.68
2019-06-10T02:55:43.473Z,74.48
2019-06-10T02:56:28.310Z,75.15
2019-06-10T02:57:04.488Z,74.48
2019-06-10T02:57:45.201Z,74.77
2019-06-10T02:58:31.353Z,75.15
2019-06-10T02:59:05.540Z,75.15
2019-06-10T02:59:46.010Z,75.25
2019-06-10T03:01:07.042Z,76.21
2019-06-10T03:01:47.491Z,76.94
2019-06-10T03:02:31.448Z,77.17
2019-06-10T03:03:49.772Z,77.71
2019-06-10T03:04:32.454Z,78.19
2019-06-10T03:05:09.878Z,77.9
2019-06-10T03:05:53.348Z,77.9
2019-06-10T03:06:36.081Z,77.71
2019-06-10T03:07:13.711Z,77.8
2019-06-10T03:07:53.235Z,77.51
2019-06-10T03:08:35.881Z,77.61
2019-06-10T03:09:14.035Z,77.51
2019-06-10T03:09:53.859Z,77.33
2019-06-10T03:10:36.895Z,78
2019-06-10T03:11:16.399Z,77.71
2019-06-10T03:11:54.877Z,77.42
2019-06-10T03:12:35.370Z,77.13
2019-06-10T03:13:15.890Z,77.23
2019-06-10T03:13:56.335Z,77.13
2019-06-10T03:14:36.829Z,77.36
2019-06-10T03:15:17.852Z,77.33
2019-06-10T03:15:57.771Z,77.36
2019-06-10T03:16:38.230Z,76.59
2019-06-10T03:17:19.820Z,76.37
2019-06-10T03:18:39.642Z,76.4
2019-06-10T03:19:37.969Z,76.21
2019-06-10T03:20:02.266Z,75.63
2019-06-10T03:20:42.607Z,76.59
2019-06-10T03:21:24.024Z,76.5
2019-06-10T03:22:02.704Z,76.5
2019-06-10T03:22:42.536Z,76.21
2019-06-10T03:23:25.073Z,76.31
2019-06-10T03:24:03.804Z,76.4
2019-06-10T03:24:44.271Z,76.5
2019-06-10T03:26:05.466Z,76.59
2019-06-10T03:26:45.979Z,76.5
2019-06-10T03:27:27.854Z,76.27
2019-06-10T03:28:47.447Z,76.31
2019-06-10T03:29:28.273Z,76.5
2019-06-10T03:30:15.131Z,76.5
2019-06-10T03:30:53.893Z,75.25
2019-06-10T03:31:37.002Z,75.25
2019-06-10T03:32:09.922Z,74.68
2019-06-10T03:32:50.392Z,74.48
2019-06-10T03:33:39.845Z,74.19
2019-06-10T03:34:14.647Z,74.01
2019-06-10T03:34:54.730Z,74.19
2019-06-10T03:35:33.032Z,74.48
2019-06-10T03:36:12.730Z,74.48
2019-06-10T03:36:53.552Z,75.06
2019-06-10T03:37:33.661Z,75.92
2019-06-10T03:38:14.116Z,76.12
2019-06-10T03:38:54.669Z,75.82
2019-06-10T03:39:35.161Z,75.15
2019-06-10T03:40:16.444Z,75.63
2019-06-10T03:40:56.503Z,75.35
2019-06-10T03:41:37.064Z,75.92
2019-06-10T03:42:18.699Z,76.12
2019-06-10T03:43:38.564Z,76.02
2019-06-10T03:44:19.096Z,75.54
2019-06-10T03:44:59.646Z,75.54
2019-06-10T03:46:23.348Z,76.69
2019-06-10T03:47:02.803Z,76.5
2019-06-10T03:47:42.639Z,76.59
2019-06-10T03:48:24.055Z,76.79
2019-06-10T03:49:03.486Z,77.36
2019-06-10T03:49:51.871Z,77.08
2019-06-10T03:50:26.792Z,77.08
2019-06-10T03:51:04.901Z,77.75
2019-06-10T03:51:45.419Z,77.56
2019-06-10T03:52:27.142Z,77.94
2019-06-10T03:53:46.942Z,78.19
2019-06-10T03:54:29.327Z,78.23
2019-06-10T03:55:07.996Z,78.47
2019-06-10T03:55:48.434Z,78.19
2019-06-10T03:56:32.200Z,78.19
2019-06-10T03:57:12.038Z,77.71
2019-06-10T03:57:52.593Z,77.71
2019-06-10T03:58:32.659Z,77.33
2019-06-10T03:59:12.300Z,77.75
2019-06-10T03:59:52.752Z,77.8
2019-06-10T04:00:33.799Z,77.04
2019-06-10T04:01:13.406Z,77.75
2019-06-10T04:01:53.893Z,77.36
2019-06-10T04:02:34.432Z,77.26
2019-06-10T04:03:14.941Z,77.08
2019-06-10T04:03:55.431Z,77.75
2019-06-10T04:04:36.378Z,77.94
2019-06-10T04:05:17.445Z,78.23
2019-06-10T04:05:57.122Z,77.94
2019-06-10T04:06:37.770Z,77.84
2019-06-10T04:07:20.112Z,78.13
2019-06-10T04:08:39.448Z,78.23
2019-06-10T04:09:22.623Z,78.47
2019-06-10T04:10:02.221Z,77.71
2019-06-10T04:10:42.945Z,77.8
2019-06-10T04:11:23.715Z,78.38
2019-06-10T04:12:03.087Z,78.42
2019-06-10T04:12:43.772Z,78.23
2019-06-10T04:13:25.765Z,78
2019-06-10T04:14:04.843Z,78
2019-06-10T04:14:45.304Z,77.94
2019-06-10T04:16:06.247Z,78.47
2019-06-10T04:16:46.704Z,78.19
2019-06-10T04:17:28.569Z,78.19
2019-06-10T04:18:48.189Z,77.8
2019-06-10T04:19:28.811Z,77.71
2019-06-10T04:20:12.288Z,78
2019-06-10T04:20:49.639Z,78
2019-06-10T04:21:32.422Z,77.61
2019-06-10T04:22:12.924Z,77.61
2019-06-10T04:22:52.279Z,77.13
2019-06-10T04:23:33.419Z,77.42
2019-06-10T04:24:12.796Z,77.33
2019-06-10T04:24:52.556Z,77.23
2019-06-10T04:25:33.026Z,77.42
2019-06-10T04:26:13.540Z,77.17
2019-06-10T04:26:53.974Z,77.56
2019-06-10T04:27:34.451Z,77.26
2019-06-10T04:28:14.923Z,76.5
2019-06-10T05:07:31.990Z,75.15
2019-06-10T05:08:18.988Z,75.25
2019-06-10T05:10:26.447Z,74.68
2019-06-10T05:11:16.373Z,74.48
2019-06-10T05:15:19.517Z,73.24
2019-06-10T05:16:00.106Z,73.62
2019-06-10T05:16:42.857Z,73.66
2019-06-10T05:17:22.000Z,72.99
2019-06-10T05:18:03.275Z,73.08
2019-06-10T05:18:42.528Z,72.79
2019-06-10T05:19:24.474Z,72.41
2019-06-10T05:20:02.964Z,72.22
2019-06-10T05:20:51.853Z,72.5
2019-06-10T05:21:26.599Z,72.31
2019-06-10T05:22:04.357Z,72.02
2019-06-10T05:22:44.804Z,72.5
2019-06-10T05:23:26.387Z,72.6
2019-06-10T05:24:05.764Z,72.02
2019-06-10T05:24:46.235Z,71.93
2019-06-10T05:25:27.240Z,71.48
2019-06-10T05:26:07.193Z,71.67
2019-06-10T05:26:47.679Z,71.48
2019-06-10T05:27:28.573Z,71.19
2019-06-10T05:28:08.591Z,71.19
2019-06-10T05:28:49.106Z,71.1
2019-06-10T05:29:30.847Z,70.62
2019-06-10T05:30:12.086Z,70.62
2019-06-10T05:30:53.060Z,70.46
2019-06-10T05:31:34.639Z,69.4
2019-06-10T05:32:12.727Z,68.83
2019-06-10T05:33:33.398Z,67.8
2019-06-10T05:34:13.279Z,67.99
2019-06-10T05:34:53.513Z,67.42
2019-06-10T05:35:34.112Z,67.16
2019-06-10T05:36:14.460Z,66.58
2019-06-10T05:36:54.985Z,66.49
2019-06-10T05:37:35.449Z,66.68
2019-06-10T05:38:16.080Z,66.49
2019-06-10T05:38:56.568Z,65.91
2019-06-10T05:39:37.078Z,65.53
2019-06-10T05:40:58.861Z,65.63
2019-06-10T05:41:39.442Z,65.53
2019-06-10T05:42:19.967Z,65.63
2019-06-10T05:43:02.375Z,65.63
2019-06-10T05:43:42.940Z,64.76
2019-06-10T05:44:23.629Z,65.14
2019-06-10T05:45:03.084Z,64.79
2019-06-10T05:45:42.565Z,65.08
2019-06-10T05:46:25.419Z,64.79
2019-06-10T05:47:04.354Z,64.59
2019-06-10T05:47:44.799Z,63.67
2019-06-10T05:48:26.692Z,63.09
2019-06-10T05:49:06.311Z,62.9
2019-06-10T05:49:46.822Z,62.32
2019-06-10T05:50:28.486Z,62.22
2019-06-10T05:51:07.772Z,62.45
2019-06-10T05:51:48.293Z,61.77
2019-06-10T05:52:29.049Z,62.06
2019-06-10T05:53:09.230Z,61.1
2019-06-10T05:53:49.717Z,60.42
2019-06-10T05:54:33.145Z,60.06
2019-06-10T05:55:52.937Z,58.62
2019-06-10T05:56:33.791Z,58.52
2019-06-10T05:57:12.201Z,58.52
2019-06-10T05:58:35.779Z,58.14
2019-06-10T05:59:13.602Z,58.42
2019-06-10T05:59:54.082Z,58.14
2019-06-10T06:00:35.579Z,57.46
2019-06-10T06:01:15.613Z,57.49
2019-06-10T06:01:56.129Z,57.39
2019-06-10T06:02:36.719Z,57.49
2019-06-10T06:03:17.252Z,57.59
2019-06-10T06:03:57.748Z,57.2
2019-06-10T06:04:38.215Z,57.01
2019-06-10T06:05:59.192Z,56.91
2019-06-10T06:06:41.699Z,57.29
2019-06-10T06:07:21.913Z,56.91
2019-06-10T06:08:05.457Z,57.01
2019-06-10T06:08:42.820Z,57.2
2019-06-10T06:09:22.100Z,57.39
2019-06-10T06:10:05.824Z,57.1
2019-06-10T06:10:46.334Z,56.94
2019-06-10T06:11:27.315Z,56.56
2019-06-10T06:12:07.318Z,56.84
2019-06-10T06:12:47.901Z,56.65
2019-06-10T06:13:29.438Z,56.74
2019-06-10T06:14:08.934Z,55.78
2019-06-10T06:14:49.505Z,55.88
2019-06-10T06:15:32.893Z,56.26
2019-06-10T06:16:12.549Z,55.98
2019-06-10T06:16:53.153Z,55.49
2019-06-10T06:17:32.714Z,55.71
2019-06-10T06:18:14.071Z,55.59
2019-06-10T06:18:52.826Z,56
2019-06-10T06:19:37.247Z,54.75
2019-06-10T06:20:56.649Z,53.88
2019-06-10T06:21:42.512Z,53.42
2019-06-10T06:22:18.418Z,53.61
2019-06-10T06:23:39.732Z,52.19
2019-06-10T06:24:33.685Z,51.42
2019-06-10T06:25:14.639Z,50.86
2019-06-10T06:25:53.134Z,50.38
2019-06-10T06:29:28.855Z,48.3
2019-06-10T06:30:11.980Z,47.72
2019-06-10T06:30:49.940Z,47.16
2019-06-10T06:31:32.858Z,45.9
2019-06-10T06:32:13.166Z,46.09
2019-06-10T06:33:35.821Z,46.22
2019-06-10T06:34:13.706Z,45.73
2019-06-10T06:34:53.300Z,45.83
2019-06-10T06:35:40.717Z,45.34
2019-06-10T06:36:16.260Z,44.78
2019-06-10T06:36:56.746Z,44.59
2019-06-10T06:37:39.488Z,44.78
2019-06-10T06:38:22.404Z,44.59
2019-06-10T06:39:05.170Z,44.68
2019-06-10T06:39:45.863Z,44.61
2019-06-10T06:40:27.158Z,44.81
2019-06-10T06:41:07.531Z,44.9
2019-06-10T06:41:49.142Z,44.9
2019-06-10T06:42:33.312Z,44.71
2019-06-10T06:43:12.022Z,45.29
2019-06-10T06:43:52.992Z,45.17
2019-06-10T06:44:33.442Z,45.47
2019-06-10T06:45:12.758Z,45.17
2019-06-10T06:46:08.413Z,45.75
2019-06-10T06:46:53.089Z,45.65
2019-06-10T06:47:33.795Z,46.04
2019-06-10T06:48:25.442Z,45.83
2019-06-10T06:49:12.742Z,45.92
2019-06-10T06:49:53.066Z,45.73
2019-06-10T06:50:38.523Z,45.73
2019-06-10T06:51:15.763Z,46.12
2019-06-10T06:51:59.239Z,46.02
2019-06-10T06:53:09.082Z,46.02
2019-06-10T06:53:29.786Z,46.19
2019-06-10T06:54:03.225Z,46.48
2019-06-10T06:54:42.810Z,46.75
2019-06-10T06:55:23.473Z,47.24
2019-06-10T06:56:03.997Z,47.81
2019-06-10T06:56:44.986Z,48.3
2019-06-10T06:57:26.599Z,48.59
2019-06-10T06:58:08.661Z,48.2
2019-06-10T06:58:52.379Z,48.39
2019-06-10T06:59:34.298Z,48.37
2019-06-10T07:00:35.030Z,48.76
2019-06-10T07:01:03.944Z,48.47
2019-06-10T07:01:37.656Z,49.15
2019-06-10T07:02:16.535Z,48.95
2019-06-10T07:02:57.335Z,48.95
2019-06-10T07:03:38.523Z,49.41
2019-06-10T07:04:18.469Z,49.6
2019-06-10T07:04:58.946Z,49.7
2019-06-10T07:05:40.842Z,50.09
2019-06-10T07:06:22.894Z,50.48
2019-06-10T07:16:04.817Z,50.93
2019-06-10T07:17:04.225Z,50.84
2019-06-10T07:22:11.670Z,54.33
2019-06-10T07:24:13.022Z,55.2
2019-06-10T07:24:53.224Z,55.2
2019-06-10T07:25:35.612Z,55.49
2019-06-10T07:26:15.124Z,55.49
2019-06-10T07:26:55.999Z,55.68
2019-06-10T07:27:38.351Z,55.88
2019-06-10T07:28:19.932Z,55.88
2019-06-10T07:29:02.869Z,56.77
2019-06-10T07:29:46.886Z,56.65
2019-06-10T07:30:22.961Z,56.65
2019-06-10T07:31:03.207Z,56
2019-06-10T07:31:45.265Z,55.33
2019-06-10T07:32:24.317Z,55.33
2019-06-10T07:33:08.592Z,55.13
2019-06-10T07:33:49.104Z,55.04
2019-06-10T07:34:32.899Z,54.68
2019-06-10T07:35:15.519Z,53.81
2019-06-10T07:35:57.946Z,53.61
2019-06-10T07:36:38.942Z,54
2019-06-10T07:37:19.589Z,54.1
2019-06-10T07:38:02.801Z,53.61
2019-06-10T07:38:48.082Z,53.81
2019-06-10T07:39:23.218Z,53.33
2019-06-10T07:40:07.827Z,53.81
2019-06-10T07:40:48.374Z,54.55
2019-06-10T07:41:32.731Z,54.27
2019-06-10T07:42:13.581Z,54.68
2019-06-10T07:43:40.584Z,55.07
2019-06-10T07:44:16.696Z,55.65
2019-06-10T07:44:57.348Z,56
2019-06-10T07:45:40.758Z,56.77
2019-06-10T07:46:23.126Z,56.1
2019-06-10T07:47:02.965Z,56
2019-06-10T07:47:52.276Z,55.81
2019-06-10T07:48:32.960Z,55.42
2019-06-10T07:49:13.399Z,55.88
2019-06-10T07:49:53.617Z,55.9
2019-06-10T07:50:43.535Z,55.59
2019-06-10T08:04:54.119Z,57.42
2019-06-10T08:05:32.303Z,57.97
2019-06-10T08:06:12.729Z,57.49
2019-06-10T08:06:53.125Z,57.78
2019-06-10T08:07:33.893Z,57.97
2019-06-10T08:08:13.767Z,57.49
2019-06-10T08:08:55.741Z,57.01
2019-06-10T08:09:37.332Z,57.14
2019-06-10T08:10:20.467Z,57.49
2019-06-10T08:12:13.663Z,58
2019-06-10T08:23:44.712Z,55.87
2019-06-10T08:27:43.885Z,56.99
2019-06-10T08:28:23.183Z,56.32
2019-06-10T08:29:04.338Z,56.71
2019-06-10T08:29:49.459Z,56.45
2019-06-10T08:37:06.540Z,54.66
2019-06-10T08:37:57.984Z,54.66
2019-06-10T08:38:48.770Z,55.92
2019-06-10T08:39:38.213Z,55.07
2019-06-10T08:51:04.134Z,55.07
2019-06-10T09:14:43.118Z,45.28
2019-06-10T09:16:54.042Z,46.33
2019-06-10T09:47:00.955Z,40.35
2019-06-10T09:47:45.068Z,40.52
2019-06-10T09:48:22.858Z,40.8
2019-06-10T09:49:02.100Z,41.48
2019-06-10T09:49:45.658Z,40.89
2019-06-10T09:50:23.750Z,40.8
2019-06-10T09:51:05.431Z,40.8
2019-06-10T09:54:33.475Z,40.42
2019-06-10T09:55:14.171Z,39.96
2019-06-10T09:55:56.772Z,39.57
2019-06-10T09:56:44.015Z,39.88
2019-06-10T09:58:25.547Z,39.39
2019-06-10T09:59:04.316Z,38.9
2019-06-10T09:59:50.384Z,38.82
2019-06-10T10:03:33.035Z,38.89
2019-06-10T10:14:11.889Z,38.73
2019-06-10T11:07:18.996Z,40
2019-06-10T11:18:23.356Z,39.04
2019-06-10T11:19:08.082Z,39.14
2019-06-10T11:19:49.460Z,39.92
2019-06-10T11:20:30.129Z,39.33
2019-06-10T11:21:14.185Z,39.43
2019-06-10T11:21:53.789Z,39.23
2019-06-10T11:22:34.349Z,39.26
2019-06-10T11:23:15.246Z,39.06
2019-06-10T11:23:59.839Z,39.06
2019-06-10T11:24:41.020Z,39.9
2019-06-10T11:25:17.045Z,40.78
2019-06-10T11:25:58.945Z,40.97
2019-06-10T11:26:38.313Z,40.95
2019-06-10T11:27:22.693Z,40.73
2019-06-10T11:28:03.952Z,41.71
2019-06-10T11:28:43.293Z,41.89
2019-06-10T11:29:23.633Z,42.94
2019-06-10T11:30:04.267Z,43.43
2019-06-10T11:32:21.800Z,43.04
2019-06-10T11:37:30.130Z,42.4
2019-06-10T11:38:19.183Z,42.3
2019-06-10T11:39:05.299Z,42
2019-06-10T11:39:46.102Z,41.81
2019-06-10T11:40:26.283Z,42.1
2019-06-10T11:41:07.808Z,42.2
2019-06-10T11:42:29.116Z,43.44
2019-06-10T11:43:13.037Z,43.33
2019-06-10T11:43:56.351Z,43.33
2019-06-10T11:44:35.893Z,43.04
2019-06-10T11:45:22.139Z,43.23
2019-06-10T11:46:06.285Z,44.28
2019-06-10T11:47:30.333Z,44.38
2019-06-10T11:49:23.908Z,45.15
2019-06-10T11:50:23.201Z,44.38
2019-06-10T11:51:04.114Z,44.94
2019-06-10T12:03:22.975Z,43.84
2019-06-10T12:11:12.593Z,40.6
2019-06-10T12:11:55.036Z,40.53
2019-06-10T12:12:33.745Z,40.63
2019-06-10T12:13:18.452Z,39.06
2019-06-10T12:14:02.689Z,39.65
2019-06-10T12:14:39.009Z,39.86
2019-06-10T12:15:22.502Z,39.49
2019-06-10T12:16:50.668Z,39.29
2019-06-10T12:18:07.676Z,37.37
2019-06-10T12:18:42.816Z,37.37
2019-06-10T12:19:23.560Z,37.47
2019-06-10T12:20:04.649Z,37.37
2019-06-10T12:20:45.874Z,37.47
2019-06-10T12:21:27.141Z,37.67
2019-06-10T12:22:07.907Z,37.75
2019-06-10T12:22:49.503Z,38.22
2019-06-10T12:23:28.968Z,38.22
2019-06-10T12:24:12.451Z,38.32
2019-06-10T12:24:50.373Z,38.61
2019-06-10T12:25:38.566Z,38.79
2019-06-10T12:26:12.598Z,38.59
2019-06-10T12:26:57.003Z,38.98
2019-06-10T12:27:35.760Z,38.98
2019-06-10T12:28:16.903Z,38.98
2019-06-10T12:28:59.149Z,39.18
2019-06-10T12:29:37.923Z,39.47
2019-06-10T12:30:18.486Z,38.89
2019-06-10T12:31:02.927Z,38.59
2019-06-10T12:31:42.745Z,38.71
2019-06-10T12:32:22.483Z,38.51
2019-06-10T12:33:05.290Z,39.29
2019-06-10T12:33:43.469Z,38.61
2019-06-10T12:34:23.928Z,38.53
2019-06-10T12:35:05.499Z,37.75
2019-06-10T12:35:45.231Z,37.85
2019-06-10T12:36:26.199Z,37.55
2019-06-10T12:37:10.996Z,37.87
2019-06-10T12:37:47.274Z,37.47
2019-06-10T12:38:28.020Z,37.27
2019-06-10T12:39:10.707Z,36.88
2019-06-10T12:39:49.607Z,36.41
2019-06-10T12:40:30.563Z,36.61
2019-06-10T12:41:13.775Z,36.32
2019-06-10T12:41:56.632Z,35.83
2019-06-10T12:42:34.883Z,35.93
2019-06-10T12:43:15.386Z,35.94
2019-06-10T12:43:56.643Z,36.04
2019-06-10T12:44:36.612Z,36.04
2019-06-10T12:45:17.188Z,35.16
2019-06-10T12:45:59.114Z,35.16
2019-06-10T12:46:39.168Z,34.78
2019-06-10T12:47:19.768Z,34.69
2019-06-10T12:48:04.176Z,34.8
2019-06-10T12:48:42.550Z,34.31
2019-06-10T12:50:18.146Z,33.74
2019-06-10T12:51:16.377Z,33.94
2019-06-10T12:51:59.238Z,33.65
2019-06-10T12:52:39.092Z,33.46
2019-06-10T12:53:19.689Z,33.56
2019-06-10T12:54:03.016Z,32.57
2019-06-10T12:54:42.282Z,32.38
2019-06-10T12:55:35.474Z,32.1
2019-06-10T12:57:35.385Z,32.48
2019-06-10T12:58:16.448Z,32.38
2019-06-10T12:58:59.304Z,32.46
2019-06-10T12:59:38.480Z,32.76
2019-06-10T13:00:25.684Z,32.86
2019-06-10T13:01:01.766Z,33.44
2019-06-10T13:01:44.606Z,33.34
2019-06-10T13:02:26.836Z,33.34
2019-06-10T13:03:05.001Z,33.53
2019-06-10T13:03:43.893Z,33.82
2019-06-10T13:04:23.846Z,33.53
2019-06-10T13:05:06.067Z,34.21
2019-06-10T13:05:44.922Z,34.31
2019-06-10T13:06:25.531Z,34.11
2019-06-10T13:07:07.538Z,33.82
2019-06-10T13:07:46.437Z,33.62
2019-06-10T13:09:09.706Z,34.11
2019-06-10T13:09:52.337Z,34.31
2019-06-10T13:10:32.956Z,34.41
2019-06-10T13:11:13.199Z,34.61
2019-06-10T13:12:38.402Z,34.31
2019-06-10T13:13:22.467Z,34.61
2019-06-10T13:14:02.788Z,34.11
2019-06-10T13:14:43.505Z,34.1
2019-06-10T13:15:22.847Z,33.33
2019-06-10T13:16:06.391Z,33.9
2019-06-10T13:16:43.743Z,34.59
2019-06-10T13:17:24.323Z,34.3
2019-06-10T13:18:07.512Z,34.18
2019-06-10T13:18:45.606Z,34.1
2019-06-10T13:19:26.096Z,34.57
2019-06-10T13:20:13.397Z,34.3
2019-06-10T13:20:47.928Z,34.1
2019-06-10T13:21:28.364Z,34.3
2019-06-10T13:22:08.994Z,34.59
2019-06-10T13:22:51.109Z,34.59
2019-06-10T13:23:34.978Z,34.88
2019-06-10T13:24:15.564Z,34.96
2019-06-10T13:24:56.455Z,34.69
2019-06-10T13:25:50.305Z,34.78
2019-06-10T13:26:17.955Z,34.78
2019-06-10T13:26:58.704Z,34.67
2019-06-10T13:27:37.963Z,35.35
2019-06-10T13:28:18.468Z,35.75
2019-06-10T13:28:58.997Z,35.35
2019-06-10T13:29:42.785Z,36.04
2019-06-10T13:30:22.512Z,35.45
2019-06-10T13:31:04.287Z,35.55
2019-06-10T13:31:43.471Z,35.65
2019-06-10T13:32:23.313Z,35.75
2019-06-10T13:33:07.228Z,35.55
2019-06-10T13:33:44.234Z,35.06
2019-06-10T13:38:45.980Z,36.38
2019-06-10T13:39:28.298Z,37.26
2019-06-10T13:40:12.911Z,37.55
2019-06-10T13:40:53.206Z,37.16
2019-06-10T13:41:33.361Z,37.26
2019-06-10T13:42:14.309Z,37.16
2019-06-10T13:42:54.174Z,37.16
2019-06-10T13:43:34.630Z,36.49
2019-06-10T13:44:16.776Z,37.18
2019-06-10T13:44:57.495Z,37.35
2019-06-10T13:45:37.083Z,36.69
2019-06-10T13:46:17.549Z,37.45
2019-06-10T13:46:59.523Z,37.93
2019-06-10T13:47:38.644Z,38.1
2019-06-10T13:48:19.022Z,38.4
2019-06-10T13:48:59.749Z,38.3
2019-06-10T13:49:42.671Z,38.59
2019-06-10T13:50:22.058Z,38.4
2019-06-10T13:51:04.652Z,38.42
2019-06-10T13:51:43.905Z,38.42
2019-06-10T13:52:23.289Z,37.73
2019-06-10T13:53:03.696Z,37.55
2019-06-10T13:53:46.179Z,37.55
2019-06-10T13:54:23.961Z,37.26
2019-06-10T13:55:07.419Z,37.26
2019-06-10T13:55:44.922Z,37.08
2019-06-10T13:57:07.289Z,36.98
2019-06-10T13:57:46.417Z,37.18
2019-06-10T13:58:26.844Z,37.37
2019-06-10T13:59:09.226Z,36.88
2019-06-10T13:59:47.802Z,37.47
2019-06-10T14:00:40.741Z,36.98
2019-06-10T14:01:11.945Z,37.08
2019-06-10T14:01:49.226Z,37.18
2019-06-10T14:02:32.197Z,36.59
2019-06-10T14:03:15.439Z,36.79
2019-06-10T14:03:53.627Z,36.59
2019-06-10T14:09:22.934Z,37.65
2019-06-10T14:10:03.934Z,38.22
2019-06-10T14:10:42.905Z,38.42
2019-06-10T14:11:26.698Z,38.51
2019-06-10T14:12:03.914Z,38.51
2019-06-10T14:12:48.542Z,38.32
2019-06-10T14:13:24.360Z,38.53
2019-06-10T14:14:07.600Z,38.43
2019-06-10T14:14:47.161Z,37.85
2019-06-10T14:15:27.764Z,37.67
2019-06-10T14:17:26.299Z,37.59
2019-06-10T14:18:07.348Z,37.69
2019-06-10T14:18:47.315Z,37.27